sensor_id;sensor_type;location;lat;lon;timestamp;P1;durP1;ratioP1;P2;durP2;ratioP2
13408;SDS011;6775;49.574;11.170;2023-02-14T00:00:50;24.47;;;13.13;;
13408;SDS011;6775;49.574;11.170;2023-02-14T00:03:18;23.10;;;13.13;;
13408;SDS011;6775;49.574;11.170;2023-02-14T00:05:46;30.00;;;15.53;;
13408;SDS011;6775;49.574;11.170;2023-02-14T00:08:15;22.77;;;13.10;;
13408;SDS011;6775;49.574;11.170;2023-02-14T00:10:43;21.33;;;12.20;;
13408;SDS011;6775;49.574;11.170;2023-02-14T00:13:11;24.70;;;13.23;;
13408;SDS011;6775;49.574;11.170;2023-02-14T00:15:39;23.23;;;12.23;;
13408;SDS011;6775;49.574;11.170;2023-02-14T00:18:06;28.10;;;15.57;;
13408;SDS011;6775;49.574;11.170;2023-02-14T00:20:33;28.57;;;15.97;;
13408;SDS011;6775;49.574;11.170;2023-02-14T00:23:02;28.23;;;15.17;;
13408;SDS011;6775;49.574;11.170;2023-02-14T00:25:31;29.37;;;17.03;;
13408;SDS011;6775;49.574;11.170;2023-02-14T00:28:00;29.40;;;16.53;;
13408;SDS011;6775;49.574;11.170;2023-02-14T00:30:28;27.13;;;14.90;;
13408;SDS011;6775;49.574;11.170;2023-02-14T00:32:56;33.13;;;17.17;;
13408;SDS011;6775;49.574;11.170;2023-02-14T00:35:23;31.70;;;16.07;;
13408;SDS011;6775;49.574;11.170;2023-02-14T00:37:51;31.83;;;16.57;;
13408;SDS011;6775;49.574;11.170;2023-02-14T00:40:19;29.33;;;16.03;;
13408;SDS011;6775;49.574;11.170;2023-02-14T00:42:48;29.87;;;16.83;;
13408;SDS011;6775;49.574;11.170;2023-02-14T00:45:16;30.93;;;16.70;;
13408;SDS011;6775;49.574;11.170;2023-02-14T00:47:45;28.73;;;16.33;;
13408;SDS011;6775;49.574;11.170;2023-02-14T00:50:13;28.10;;;15.13;;
13408;SDS011;6775;49.574;11.170;2023-02-14T00:52:41;29.57;;;15.90;;
13408;SDS011;6775;49.574;11.170;2023-02-14T00:55:08;29.80;;;15.73;;
13408;SDS011;6775;49.574;11.170;2023-02-14T00:57:36;30.33;;;16.13;;
13408;SDS011;6775;49.574;11.170;2023-02-14T01:00:06;31.07;;;16.57;;
13408;SDS011;6775;49.574;11.170;2023-02-14T01:02:35;30.53;;;16.97;;
13408;SDS011;6775;49.574;11.170;2023-02-14T01:05:04;29.70;;;14.93;;
13408;SDS011;6775;49.574;11.170;2023-02-14T01:07:32;29.63;;;14.90;;
13408;SDS011;6775;49.574;11.170;2023-02-14T01:10:00;31.13;;;16.93;;
13408;SDS011;6775;49.574;11.170;2023-02-14T01:12:28;29.43;;;15.90;;
13408;SDS011;6775;49.574;11.170;2023-02-14T01:14:55;27.73;;;13.97;;
13408;SDS011;6775;49.574;11.170;2023-02-14T01:17:25;28.30;;;14.60;;
13408;SDS011;6775;49.574;11.170;2023-02-14T01:19:53;31.30;;;15.77;;
13408;SDS011;6775;49.574;11.170;2023-02-14T01:22:21;28.60;;;15.10;;
13408;SDS011;6775;49.574;11.170;2023-02-14T01:24:49;26.37;;;15.40;;
13408;SDS011;6775;49.574;11.170;2023-02-14T01:27:17;28.13;;;15.07;;
13408;SDS011;6775;49.574;11.170;2023-02-14T01:29:45;28.47;;;14.40;;
13408;SDS011;6775;49.574;11.170;2023-02-14T01:32:13;31.77;;;15.23;;
13408;SDS011;6775;49.574;11.170;2023-02-14T01:34:42;30.03;;;14.23;;
13408;SDS011;6775;49.574;11.170;2023-02-14T01:37:10;32.83;;;16.27;;
13408;SDS011;6775;49.574;11.170;2023-02-14T01:39:37;32.00;;;15.47;;
13408;SDS011;6775;49.574;11.170;2023-02-14T01:42:05;29.03;;;15.20;;
13408;SDS011;6775;49.574;11.170;2023-02-14T01:47:25;29.50;;;15.10;;
13408;SDS011;6775;49.574;11.170;2023-02-14T01:49:56;28.10;;;13.77;;
13408;SDS011;6775;49.574;11.170;2023-02-14T01:52:28;25.63;;;13.73;;
13408;SDS011;6775;49.574;11.170;2023-02-14T01:55:00;31.07;;;13.53;;
13408;SDS011;6775;49.574;11.170;2023-02-14T01:57:33;28.53;;;14.33;;
13408;SDS011;6775;49.574;11.170;2023-02-14T02:00:05;33.90;;;15.93;;
13408;SDS011;6775;49.574;11.170;2023-02-14T02:02:52;29.63;;;14.00;;
13408;SDS011;6775;49.574;11.170;2023-02-14T02:05:22;29.57;;;14.83;;
13408;SDS011;6775;49.574;11.170;2023-02-14T02:07:50;30.10;;;15.40;;
13408;SDS011;6775;49.574;11.170;2023-02-14T02:10:21;31.73;;;15.70;;
13408;SDS011;6775;49.574;11.170;2023-02-14T02:12:50;31.83;;;14.60;;
13408;SDS011;6775;49.574;11.170;2023-02-14T02:15:19;30.40;;;14.23;;
13408;SDS011;6775;49.574;11.170;2023-02-14T02:17:52;29.20;;;13.87;;
13408;SDS011;6775;49.574;11.170;2023-02-14T02:29:53;27.97;;;12.43;;
13408;SDS011;6775;49.574;11.170;2023-02-14T02:32:52;28.43;;;14.17;;
13408;SDS011;6775;49.574;11.170;2023-02-14T02:35:49;29.83;;;14.40;;
13408;SDS011;6775;49.574;11.170;2023-02-14T02:38:32;28.07;;;13.23;;
13408;SDS011;6775;49.574;11.170;2023-02-14T02:41:13;26.93;;;13.23;;
13408;SDS011;6775;49.574;11.170;2023-02-14T02:43:51;28.27;;;12.87;;
13408;SDS011;6775;49.574;11.170;2023-02-14T02:46:23;27.93;;;13.90;;
13408;SDS011;6775;49.574;11.170;2023-02-14T02:49:16;26.70;;;13.47;;
13408;SDS011;6775;49.574;11.170;2023-02-14T02:52:12;27.43;;;12.13;;
13408;SDS011;6775;49.574;11.170;2023-02-14T02:55:04;30.33;;;14.27;;
13408;SDS011;6775;49.574;11.170;2023-02-14T02:57:38;27.47;;;14.00;;
13408;SDS011;6775;49.574;11.170;2023-02-14T03:00:08;30.80;;;14.43;;
13408;SDS011;6775;49.574;11.170;2023-02-14T03:02:40;27.50;;;13.77;;
13408;SDS011;6775;49.574;11.170;2023-02-14T03:05:29;30.73;;;14.20;;
13408;SDS011;6775;49.574;11.170;2023-02-14T03:07:59;33.77;;;14.77;;
13408;SDS011;6775;49.574;11.170;2023-02-14T03:10:28;30.13;;;13.87;;
13408;SDS011;6775;49.574;11.170;2023-02-14T03:16:24;27.23;;;13.77;;
13408;SDS011;6775;49.574;11.170;2023-02-14T03:19:03;26.93;;;12.93;;
13408;SDS011;6775;49.574;11.170;2023-02-14T03:21:53;27.83;;;13.40;;
13408;SDS011;6775;49.574;11.170;2023-02-14T03:24:26;30.67;;;13.63;;
13408;SDS011;6775;49.574;11.170;2023-02-14T03:27:03;29.87;;;13.53;;
13408;SDS011;6775;49.574;11.170;2023-02-14T03:29:40;24.87;;;12.77;;
13408;SDS011;6775;49.574;11.170;2023-02-14T03:32:17;30.53;;;14.30;;
13408;SDS011;6775;49.574;11.170;2023-02-14T03:34:52;34.10;;;15.37;;
13408;SDS011;6775;49.574;11.170;2023-02-14T03:37:25;29.53;;;14.60;;
13408;SDS011;6775;49.574;11.170;2023-02-14T03:40:00;25.43;;;14.17;;
13408;SDS011;6775;49.574;11.170;2023-02-14T03:42:34;31.10;;;15.10;;
13408;SDS011;6775;49.574;11.170;2023-02-14T03:45:07;30.70;;;14.97;;
13408;SDS011;6775;49.574;11.170;2023-02-14T03:47:37;30.07;;;14.83;;
13408;SDS011;6775;49.574;11.170;2023-02-14T03:50:09;29.93;;;15.40;;
13408;SDS011;6775;49.574;11.170;2023-02-14T03:52:40;26.60;;;14.30;;
13408;SDS011;6775;49.574;11.170;2023-02-14T03:55:11;25.80;;;13.50;;
13408;SDS011;6775;49.574;11.170;2023-02-14T03:57:45;27.87;;;14.43;;
13408;SDS011;6775;49.574;11.170;2023-02-14T04:00:18;32.20;;;14.70;;
13408;SDS011;6775;49.574;11.170;2023-02-14T04:02:47;29.23;;;14.57;;
13408;SDS011;6775;49.574;11.170;2023-02-14T04:05:20;31.37;;;14.67;;
13408;SDS011;6775;49.574;11.170;2023-02-14T04:07:51;31.80;;;16.00;;
13408;SDS011;6775;49.574;11.170;2023-02-14T04:10:21;30.20;;;15.53;;
13408;SDS011;6775;49.574;11.170;2023-02-14T04:12:50;35.27;;;16.97;;
13408;SDS011;6775;49.574;11.170;2023-02-14T04:15:19;35.53;;;16.17;;
13408;SDS011;6775;49.574;11.170;2023-02-14T04:17:47;33.10;;;15.20;;
13408;SDS011;6775;49.574;11.170;2023-02-14T04:20:33;30.87;;;15.13;;
13408;SDS011;6775;49.574;11.170;2023-02-14T04:23:02;36.23;;;16.93;;
13408;SDS011;6775;49.574;11.170;2023-02-14T04:25:31;32.07;;;15.23;;
13408;SDS011;6775;49.574;11.170;2023-02-14T04:27:59;38.10;;;17.13;;
13408;SDS011;6775;49.574;11.170;2023-02-14T04:30:27;33.77;;;16.23;;
13408;SDS011;6775;49.574;11.170;2023-02-14T04:32:54;31.10;;;15.40;;
13408;SDS011;6775;49.574;11.170;2023-02-14T04:35:22;33.03;;;15.83;;
13408;SDS011;6775;49.574;11.170;2023-02-14T04:37:50;36.00;;;16.43;;
13408;SDS011;6775;49.574;11.170;2023-02-14T04:40:18;36.00;;;15.33;;
13408;SDS011;6775;49.574;11.170;2023-02-14T04:42:47;29.60;;;15.60;;
13408;SDS011;6775;49.574;11.170;2023-02-14T04:45:15;35.77;;;16.63;;
13408;SDS011;6775;49.574;11.170;2023-02-14T04:47:43;37.63;;;16.37;;
13408;SDS011;6775;49.574;11.170;2023-02-14T04:50:12;38.27;;;16.63;;
13408;SDS011;6775;49.574;11.170;2023-02-14T04:52:40;35.97;;;16.53;;
13408;SDS011;6775;49.574;11.170;2023-02-14T04:55:08;36.47;;;16.63;;
13408;SDS011;6775;49.574;11.170;2023-02-14T04:57:36;34.70;;;15.40;;
13408;SDS011;6775;49.574;11.170;2023-02-14T05:00:06;34.70;;;16.27;;
13408;SDS011;6775;49.574;11.170;2023-02-14T05:02:35;34.60;;;16.43;;
13408;SDS011;6775;49.574;11.170;2023-02-14T05:05:03;31.10;;;15.17;;
13408;SDS011;6775;49.574;11.170;2023-02-14T05:07:32;30.50;;;15.13;;
13408;SDS011;6775;49.574;11.170;2023-02-14T05:10:00;29.37;;;14.90;;
13408;SDS011;6775;49.574;11.170;2023-02-14T05:12:28;28.23;;;14.87;;
13408;SDS011;6775;49.574;11.170;2023-02-14T05:14:56;30.17;;;14.33;;
13408;SDS011;6775;49.574;11.170;2023-02-14T05:17:25;28.07;;;14.53;;
13408;SDS011;6775;49.574;11.170;2023-02-14T05:19:53;33.27;;;15.17;;
13408;SDS011;6775;49.574;11.170;2023-02-14T05:22:20;28.73;;;13.93;;
13408;SDS011;6775;49.574;11.170;2023-02-14T05:24:48;32.67;;;14.50;;
13408;SDS011;6775;49.574;11.170;2023-02-14T05:27:16;32.33;;;13.57;;
13408;SDS011;6775;49.574;11.170;2023-02-14T05:29:44;28.27;;;13.33;;
13408;SDS011;6775;49.574;11.170;2023-02-14T05:32:12;28.20;;;14.50;;
13408;SDS011;6775;49.574;11.170;2023-02-14T05:34:41;27.67;;;13.43;;
13408;SDS011;6775;49.574;11.170;2023-02-14T05:37:09;26.70;;;13.83;;
13408;SDS011;6775;49.574;11.170;2023-02-14T05:39:36;28.03;;;12.87;;
13408;SDS011;6775;49.574;11.170;2023-02-14T05:42:04;25.07;;;12.10;;
13408;SDS011;6775;49.574;11.170;2023-02-14T05:44:32;22.50;;;11.83;;
13408;SDS011;6775;49.574;11.170;2023-02-14T05:47:00;24.30;;;12.23;;
13408;SDS011;6775;49.574;11.170;2023-02-14T05:49:28;25.10;;;12.73;;
13408;SDS011;6775;49.574;11.170;2023-02-14T05:51:57;23.00;;;11.87;;
13408;SDS011;6775;49.574;11.170;2023-02-14T05:54:25;22.87;;;12.13;;
13408;SDS011;6775;49.574;11.170;2023-02-14T05:56:52;23.10;;;12.40;;
13408;SDS011;6775;49.574;11.170;2023-02-14T05:59:20;22.90;;;12.13;;
13408;SDS011;6775;49.574;11.170;2023-02-14T06:01:48;21.97;;;11.77;;
13408;SDS011;6775;49.574;11.170;2023-02-14T06:04:16;23.57;;;11.17;;
13408;SDS011;6775;49.574;11.170;2023-02-14T06:06:44;21.63;;;11.37;;
13408;SDS011;6775;49.574;11.170;2023-02-14T06:09:13;24.40;;;11.87;;
13408;SDS011;6775;49.574;11.170;2023-02-14T06:11:41;24.03;;;10.60;;
13408;SDS011;6775;49.574;11.170;2023-02-14T06:14:09;20.83;;;10.73;;
13408;SDS011;6775;49.574;11.170;2023-02-14T06:16:36;23.90;;;11.57;;
13408;SDS011;6775;49.574;11.170;2023-02-14T06:19:04;20.13;;;11.47;;
13408;SDS011;6775;49.574;11.170;2023-02-14T06:21:32;21.17;;;11.20;;
13408;SDS011;6775;49.574;11.170;2023-02-14T06:24:01;20.63;;;10.70;;
13408;SDS011;6775;49.574;11.170;2023-02-14T06:26:30;21.43;;;11.20;;
13408;SDS011;6775;49.574;11.170;2023-02-14T06:29:00;22.43;;;11.87;;
13408;SDS011;6775;49.574;11.170;2023-02-14T06:31:30;24.70;;;11.13;;
13408;SDS011;6775;49.574;11.170;2023-02-14T06:33:58;21.77;;;11.03;;
13408;SDS011;6775;49.574;11.170;2023-02-14T06:36:26;19.00;;;10.20;;
13408;SDS011;6775;49.574;11.170;2023-02-14T06:38:54;20.53;;;11.30;;
13408;SDS011;6775;49.574;11.170;2023-02-14T06:41:21;23.03;;;10.70;;
13408;SDS011;6775;49.574;11.170;2023-02-14T06:43:51;21.67;;;11.20;;
13408;SDS011;6775;49.574;11.170;2023-02-14T06:46:18;19.83;;;10.90;;
13408;SDS011;6775;49.574;11.170;2023-02-14T06:48:46;17.53;;;10.30;;
13408;SDS011;6775;49.574;11.170;2023-02-14T06:51:14;18.37;;;10.43;;
13408;SDS011;6775;49.574;11.170;2023-02-14T06:53:42;18.23;;;9.87;;
13408;SDS011;6775;49.574;11.170;2023-02-14T06:56:10;19.27;;;9.97;;
13408;SDS011;6775;49.574;11.170;2023-02-14T06:58:38;19.03;;;9.70;;
13408;SDS011;6775;49.574;11.170;2023-02-14T07:01:07;19.70;;;9.30;;
13408;SDS011;6775;49.574;11.170;2023-02-14T07:03:35;19.00;;;10.27;;
13408;SDS011;6775;49.574;11.170;2023-02-14T07:06:02;16.67;;;10.17;;
13408;SDS011;6775;49.574;11.170;2023-02-14T07:08:30;18.27;;;9.63;;
13408;SDS011;6775;49.574;11.170;2023-02-14T07:10:58;18.27;;;10.20;;
13408;SDS011;6775;49.574;11.170;2023-02-14T07:13:26;21.10;;;10.07;;
13408;SDS011;6775;49.574;11.170;2023-02-14T07:15:54;19.70;;;10.40;;
13408;SDS011;6775;49.574;11.170;2023-02-14T07:18:24;19.07;;;10.13;;
13408;SDS011;6775;49.574;11.170;2023-02-14T07:20:51;17.47;;;9.87;;
13408;SDS011;6775;49.574;11.170;2023-02-14T07:23:19;19.17;;;10.00;;
13408;SDS011;6775;49.574;11.170;2023-02-14T07:25:47;19.30;;;9.67;;
13408;SDS011;6775;49.574;11.170;2023-02-14T07:28:15;19.47;;;9.20;;
13408;SDS011;6775;49.574;11.170;2023-02-14T07:30:44;16.00;;;9.50;;
13408;SDS011;6775;49.574;11.170;2023-02-14T07:33:13;16.20;;;9.03;;
13408;SDS011;6775;49.574;11.170;2023-02-14T07:35:42;16.13;;;9.60;;
13408;SDS011;6775;49.574;11.170;2023-02-14T07:38:09;16.10;;;10.23;;
13408;SDS011;6775;49.574;11.170;2023-02-14T07:40:37;16.00;;;9.17;;
13408;SDS011;6775;49.574;11.170;2023-02-14T07:43:05;18.33;;;9.53;;
13408;SDS011;6775;49.574;11.170;2023-02-14T07:45:33;17.00;;;9.23;;
13408;SDS011;6775;49.574;11.170;2023-02-14T07:48:01;21.63;;;9.70;;
13408;SDS011;6775;49.574;11.170;2023-02-14T07:50:29;18.50;;;9.40;;
13408;SDS011;6775;49.574;11.170;2023-02-14T07:52:58;15.47;;;8.53;;
13408;SDS011;6775;49.574;11.170;2023-02-14T07:55:26;19.53;;;9.40;;
13408;SDS011;6775;49.574;11.170;2023-02-14T07:57:54;16.40;;;8.87;;
13408;SDS011;6775;49.574;11.170;2023-02-14T08:00:21;19.13;;;9.13;;
13408;SDS011;6775;49.574;11.170;2023-02-14T08:02:49;15.70;;;8.93;;
13408;SDS011;6775;49.574;11.170;2023-02-14T08:05:17;17.27;;;9.30;;
13408;SDS011;6775;49.574;11.170;2023-02-14T08:07:45;18.23;;;9.60;;
13408;SDS011;6775;49.574;11.170;2023-02-14T08:10:15;20.17;;;10.23;;
13408;SDS011;6775;49.574;11.170;2023-02-14T08:12:43;18.00;;;9.83;;
13408;SDS011;6775;49.574;11.170;2023-02-14T08:15:26;18.70;;;10.20;;
13408;SDS011;6775;49.574;11.170;2023-02-14T08:18:13;15.37;;;8.90;;
13408;SDS011;6775;49.574;11.170;2023-02-14T08:20:40;17.07;;;10.27;;
13408;SDS011;6775;49.574;11.170;2023-02-14T08:23:08;19.97;;;10.13;;
13408;SDS011;6775;49.574;11.170;2023-02-14T08:25:38;17.80;;;9.33;;
13408;SDS011;6775;49.574;11.170;2023-02-14T08:28:06;15.80;;;8.87;;
13408;SDS011;6775;49.574;11.170;2023-02-14T08:30:34;20.30;;;10.50;;
13408;SDS011;6775;49.574;11.170;2023-02-14T08:33:03;17.47;;;10.30;;
13408;SDS011;6775;49.574;11.170;2023-02-14T08:35:31;21.07;;;14.23;;
13408;SDS011;6775;49.574;11.170;2023-02-14T08:37:59;20.03;;;10.43;;
13408;SDS011;6775;49.574;11.170;2023-02-14T08:40:27;15.97;;;8.83;;
13408;SDS011;6775;49.574;11.170;2023-02-14T08:42:56;18.67;;;9.17;;
13408;SDS011;6775;49.574;11.170;2023-02-14T08:45:24;16.87;;;9.47;;
13408;SDS011;6775;49.574;11.170;2023-02-14T08:47:52;17.63;;;9.67;;
13408;SDS011;6775;49.574;11.170;2023-02-14T08:50:20;17.63;;;10.57;;
13408;SDS011;6775;49.574;11.170;2023-02-14T08:52:48;18.77;;;9.83;;
13408;SDS011;6775;49.574;11.170;2023-02-14T08:55:16;17.03;;;9.93;;
13408;SDS011;6775;49.574;11.170;2023-02-14T08:57:44;17.40;;;10.23;;
13408;SDS011;6775;49.574;11.170;2023-02-14T09:00:13;18.40;;;9.70;;
13408;SDS011;6775;49.574;11.170;2023-02-14T09:02:41;17.27;;;9.00;;
13408;SDS011;6775;49.574;11.170;2023-02-14T09:05:09;35.70;;;21.13;;
13408;SDS011;6775;49.574;11.170;2023-02-14T09:07:38;27.30;;;15.90;;
13408;SDS011;6775;49.574;11.170;2023-02-14T09:10:06;22.57;;;14.87;;
13408;SDS011;6775;49.574;11.170;2023-02-14T09:12:37;24.33;;;11.23;;
13408;SDS011;6775;49.574;11.170;2023-02-14T09:15:05;18.47;;;10.10;;
13408;SDS011;6775;49.574;11.170;2023-02-14T09:17:35;19.17;;;10.53;;
13408;SDS011;6775;49.574;11.170;2023-02-14T09:20:04;18.63;;;10.30;;
13408;SDS011;6775;49.574;11.170;2023-02-14T09:22:33;19.50;;;10.50;;
13408;SDS011;6775;49.574;11.170;2023-02-14T09:25:01;18.20;;;10.20;;
13408;SDS011;6775;49.574;11.170;2023-02-14T09:27:29;21.83;;;11.10;;
13408;SDS011;6775;49.574;11.170;2023-02-14T09:29:57;18.87;;;10.20;;
13408;SDS011;6775;49.574;11.170;2023-02-14T09:32:25;18.80;;;10.43;;
13408;SDS011;6775;49.574;11.170;2023-02-14T09:34:55;20.07;;;11.03;;
13408;SDS011;6775;49.574;11.170;2023-02-14T09:37:23;20.27;;;11.03;;
13408;SDS011;6775;49.574;11.170;2023-02-14T09:39:51;21.70;;;11.33;;
13408;SDS011;6775;49.574;11.170;2023-02-14T09:42:22;22.03;;;10.97;;
13408;SDS011;6775;49.574;11.170;2023-02-14T09:45:04;20.07;;;11.47;;
13408;SDS011;6775;49.574;11.170;2023-02-14T09:47:38;19.90;;;10.90;;
13408;SDS011;6775;49.574;11.170;2023-02-14T09:50:15;21.27;;;10.97;;
13408;SDS011;6775;49.574;11.170;2023-02-14T09:52:46;21.60;;;11.13;;
13408;SDS011;6775;49.574;11.170;2023-02-14T09:55:21;21.00;;;11.17;;
13408;SDS011;6775;49.574;11.170;2023-02-14T10:00:41;22.53;;;11.53;;
13408;SDS011;6775;49.574;11.170;2023-02-14T10:03:21;20.23;;;11.40;;
13408;SDS011;6775;49.574;11.170;2023-02-14T10:06:21;21.93;;;11.37;;
13408;SDS011;6775;49.574;11.170;2023-02-14T10:09:00;19.67;;;10.93;;
13408;SDS011;6775;49.574;11.170;2023-02-14T10:11:35;24.53;;;10.90;;
13408;SDS011;6775;49.574;11.170;2023-02-14T10:14:04;20.60;;;11.10;;
13408;SDS011;6775;49.574;11.170;2023-02-14T10:16:38;20.93;;;10.50;;
13408;SDS011;6775;49.574;11.170;2023-02-14T10:19:13;18.97;;;10.77;;
13408;SDS011;6775;49.574;11.170;2023-02-14T10:21:49;20.47;;;11.10;;
13408;SDS011;6775;49.574;11.170;2023-02-14T10:24:22;21.07;;;10.53;;
13408;SDS011;6775;49.574;11.170;2023-02-14T10:26:54;21.63;;;11.67;;
13408;SDS011;6775;49.574;11.170;2023-02-14T10:29:27;18.83;;;11.00;;
13408;SDS011;6775;49.574;11.170;2023-02-14T10:31:56;22.13;;;11.37;;
13408;SDS011;6775;49.574;11.170;2023-02-14T10:34:28;22.37;;;11.67;;
13408;SDS011;6775;49.574;11.170;2023-02-14T10:37:10;21.23;;;11.07;;
13408;SDS011;6775;49.574;11.170;2023-02-14T10:39:52;19.90;;;11.17;;
13408;SDS011;6775;49.574;11.170;2023-02-14T10:42:35;20.67;;;10.87;;
13408;SDS011;6775;49.574;11.170;2023-02-14T10:45:14;20.03;;;10.90;;
13408;SDS011;6775;49.574;11.170;2023-02-14T10:47:49;19.43;;;10.03;;
13408;SDS011;6775;49.574;11.170;2023-02-14T10:50:22;15.43;;;9.67;;
13408;SDS011;6775;49.574;11.170;2023-02-14T10:52:57;20.83;;;11.23;;
13408;SDS011;6775;49.574;11.170;2023-02-14T10:55:37;15.10;;;9.27;;
13408;SDS011;6775;49.574;11.170;2023-02-14T10:58:11;19.10;;;9.77;;
13408;SDS011;6775;49.574;11.170;2023-02-14T11:00:43;19.83;;;10.90;;
13408;SDS011;6775;49.574;11.170;2023-02-14T11:03:19;18.13;;;10.30;;
13408;SDS011;6775;49.574;11.170;2023-02-14T11:05:47;20.37;;;10.83;;
13408;SDS011;6775;49.574;11.170;2023-02-14T11:08:23;17.43;;;9.47;;
13408;SDS011;6775;49.574;11.170;2023-02-14T11:10:52;19.13;;;10.50;;
13408;SDS011;6775;49.574;11.170;2023-02-14T11:13:30;20.20;;;11.23;;
13408;SDS011;6775;49.574;11.170;2023-02-14T11:16:01;21.50;;;10.90;;
13408;SDS011;6775;49.574;11.170;2023-02-14T11:18:31;20.20;;;10.67;;
13408;SDS011;6775;49.574;11.170;2023-02-14T11:21:02;17.77;;;10.50;;
13408;SDS011;6775;49.574;11.170;2023-02-14T11:23:38;18.07;;;9.73;;
13408;SDS011;6775;49.574;11.170;2023-02-14T11:26:08;20.10;;;10.53;;
13408;SDS011;6775;49.574;11.170;2023-02-14T11:28:46;17.80;;;10.03;;
13408;SDS011;6775;49.574;11.170;2023-02-14T11:31:27;15.10;;;8.77;;
13408;SDS011;6775;49.574;11.170;2023-02-14T11:33:57;14.80;;;9.40;;
13408;SDS011;6775;49.574;11.170;2023-02-14T11:36:28;16.33;;;9.37;;
13408;SDS011;6775;49.574;11.170;2023-02-14T11:39:01;14.47;;;8.77;;
13408;SDS011;6775;49.574;11.170;2023-02-14T11:41:45;13.40;;;7.90;;
13408;SDS011;6775;49.574;11.170;2023-02-14T11:44:15;11.73;;;7.73;;
13408;SDS011;6775;49.574;11.170;2023-02-14T11:46:48;15.50;;;8.50;;
13408;SDS011;6775;49.574;11.170;2023-02-14T11:49:26;11.87;;;7.63;;
13408;SDS011;6775;49.574;11.170;2023-02-14T11:51:56;16.27;;;9.67;;
13408;SDS011;6775;49.574;11.170;2023-02-14T11:54:31;14.57;;;8.47;;
13408;SDS011;6775;49.574;11.170;2023-02-14T11:57:03;15.50;;;8.83;;
13408;SDS011;6775;49.574;11.170;2023-02-14T11:59:34;17.57;;;9.33;;
13408;SDS011;6775;49.574;11.170;2023-02-14T12:02:12;14.33;;;9.07;;
13408;SDS011;6775;49.574;11.170;2023-02-14T12:04:50;14.93;;;8.63;;
13408;SDS011;6775;49.574;11.170;2023-02-14T12:07:22;13.70;;;8.30;;
13408;SDS011;6775;49.574;11.170;2023-02-14T12:12:52;14.53;;;8.30;;
13408;SDS011;6775;49.574;11.170;2023-02-14T12:15:23;14.73;;;8.93;;
13408;SDS011;6775;49.574;11.170;2023-02-14T12:18:02;14.80;;;8.67;;
13408;SDS011;6775;49.574;11.170;2023-02-14T12:20:52;13.00;;;7.90;;
13408;SDS011;6775;49.574;11.170;2023-02-14T12:23:25;13.07;;;7.90;;
13408;SDS011;6775;49.574;11.170;2023-02-14T12:26:05;10.43;;;6.67;;
13408;SDS011;6775;49.574;11.170;2023-02-14T12:28:44;12.90;;;7.53;;
13408;SDS011;6775;49.574;11.170;2023-02-14T12:31:17;13.07;;;7.43;;
13408;SDS011;6775;49.574;11.170;2023-02-14T12:33:45;16.87;;;9.37;;
13408;SDS011;6775;49.574;11.170;2023-02-14T12:36:17;14.43;;;8.80;;
13408;SDS011;6775;49.574;11.170;2023-02-14T12:39:00;16.37;;;9.20;;
13408;SDS011;6775;49.574;11.170;2023-02-14T12:41:37;12.03;;;7.10;;
13408;SDS011;6775;49.574;11.170;2023-02-14T12:44:12;11.73;;;7.47;;
13408;SDS011;6775;49.574;11.170;2023-02-14T12:46:51;10.03;;;6.27;;
13408;SDS011;6775;49.574;11.170;2023-02-14T12:52:30;11.30;;;6.90;;
13408;SDS011;6775;49.574;11.170;2023-02-14T12:58:16;12.67;;;7.93;;
13408;SDS011;6775;49.574;11.170;2023-02-14T13:00:55;12.87;;;8.00;;
13408;SDS011;6775;49.574;11.170;2023-02-14T13:06:30;12.50;;;7.50;;
13408;SDS011;6775;49.574;11.170;2023-02-14T13:09:04;11.27;;;7.23;;
13408;SDS011;6775;49.574;11.170;2023-02-14T13:11:52;10.03;;;6.77;;
13408;SDS011;6775;49.574;11.170;2023-02-14T13:14:39;11.27;;;6.77;;
13408;SDS011;6775;49.574;11.170;2023-02-14T13:17:20;11.13;;;6.53;;
13408;SDS011;6775;49.574;11.170;2023-02-14T13:20:02;11.50;;;7.37;;
13408;SDS011;6775;49.574;11.170;2023-02-14T13:22:41;10.80;;;6.90;;
13408;SDS011;6775;49.574;11.170;2023-02-14T13:25:15;10.73;;;6.90;;
13408;SDS011;6775;49.574;11.170;2023-02-14T13:27:56;9.10;;;6.23;;
13408;SDS011;6775;49.574;11.170;2023-02-14T13:30:27;8.60;;;5.97;;
13408;SDS011;6775;49.574;11.170;2023-02-14T13:32:59;7.40;;;5.30;;
13408;SDS011;6775;49.574;11.170;2023-02-14T13:35:30;8.53;;;6.10;;
13408;SDS011;6775;49.574;11.170;2023-02-14T13:37:59;8.03;;;6.07;;
13408;SDS011;6775;49.574;11.170;2023-02-14T13:40:31;7.30;;;5.50;;
13408;SDS011;6775;49.574;11.170;2023-02-14T13:43:00;6.33;;;4.97;;
13408;SDS011;6775;49.574;11.170;2023-02-14T13:48:31;5.50;;;4.70;;
13408;SDS011;6775;49.574;11.170;2023-02-14T13:51:00;6.40;;;5.50;;
13408;SDS011;6775;49.574;11.170;2023-02-14T13:53:30;5.67;;;4.70;;
13408;SDS011;6775;49.574;11.170;2023-02-14T13:56:04;4.93;;;4.43;;
13408;SDS011;6775;49.574;11.170;2023-02-14T13:58:56;4.80;;;4.23;;
13408;SDS011;6775;49.574;11.170;2023-02-14T14:01:31;5.20;;;4.60;;
13408;SDS011;6775;49.574;11.170;2023-02-14T14:04:02;5.83;;;4.40;;
13408;SDS011;6775;49.574;11.170;2023-02-14T14:09:51;5.90;;;4.90;;
13408;SDS011;6775;49.574;11.170;2023-02-14T14:12:35;4.87;;;4.17;;
13408;SDS011;6775;49.574;11.170;2023-02-14T14:21:13;7.13;;;5.70;;
13408;SDS011;6775;49.574;11.170;2023-02-14T14:23:42;5.47;;;4.90;;
13408;SDS011;6775;49.574;11.170;2023-02-14T14:26:30;7.80;;;5.57;;
13408;SDS011;6775;49.574;11.170;2023-02-14T14:29:02;8.67;;;5.53;;
13408;SDS011;6775;49.574;11.170;2023-02-14T14:31:37;7.90;;;5.70;;
13408;SDS011;6775;49.574;11.170;2023-02-14T14:34:14;7.17;;;5.60;;
13408;SDS011;6775;49.574;11.170;2023-02-14T14:36:44;7.73;;;6.20;;
13408;SDS011;6775;49.574;11.170;2023-02-14T14:39:11;7.73;;;5.70;;
13408;SDS011;6775;49.574;11.170;2023-02-14T14:41:52;7.10;;;5.60;;
13408;SDS011;6775;49.574;11.170;2023-02-14T14:44:20;7.17;;;5.47;;
13408;SDS011;6775;49.574;11.170;2023-02-14T14:46:49;8.67;;;6.30;;
13408;SDS011;6775;49.574;11.170;2023-02-14T14:49:18;7.80;;;5.77;;
13408;SDS011;6775;49.574;11.170;2023-02-14T14:51:47;8.67;;;6.00;;
13408;SDS011;6775;49.574;11.170;2023-02-14T14:54:16;7.70;;;5.40;;
13408;SDS011;6775;49.574;11.170;2023-02-14T14:56:48;6.90;;;5.30;;
13408;SDS011;6775;49.574;11.170;2023-02-14T14:59:18;8.17;;;5.17;;
13408;SDS011;6775;49.574;11.170;2023-02-14T15:01:54;6.70;;;5.07;;
13408;SDS011;6775;49.574;11.170;2023-02-14T15:04:25;7.20;;;5.67;;
13408;SDS011;6775;49.574;11.170;2023-02-14T15:06:55;8.10;;;5.80;;
13408;SDS011;6775;49.574;11.170;2023-02-14T15:09:28;8.67;;;5.20;;
13408;SDS011;6775;49.574;11.170;2023-02-14T15:11:59;9.53;;;6.17;;
13408;SDS011;6775;49.574;11.170;2023-02-14T15:14:46;8.53;;;5.87;;
13408;SDS011;6775;49.574;11.170;2023-02-14T15:17:20;7.80;;;6.00;;
13408;SDS011;6775;49.574;11.170;2023-02-14T15:19:53;7.77;;;5.50;;
13408;SDS011;6775;49.574;11.170;2023-02-14T15:22:23;10.43;;;6.20;;
13408;SDS011;6775;49.574;11.170;2023-02-14T15:24:52;9.13;;;5.83;;
13408;SDS011;6775;49.574;11.170;2023-02-14T15:27:21;9.80;;;6.10;;
13408;SDS011;6775;49.574;11.170;2023-02-14T15:29:52;10.47;;;6.20;;
13408;SDS011;6775;49.574;11.170;2023-02-14T15:32:21;9.70;;;6.20;;
13408;SDS011;6775;49.574;11.170;2023-02-14T15:34:50;9.10;;;6.43;;
13408;SDS011;6775;49.574;11.170;2023-02-14T15:37:20;9.03;;;5.50;;